createdAt,value
2022-12-24T00:01:34.364Z,15.80
2022-12-24T00:04:01.031Z,18.00
2022-12-24T00:06:27.652Z,15.10
2022-12-24T00:08:54.141Z,17.70
2022-12-24T00:11:20.791Z,15.50
2022-12-24T00:13:47.895Z,17.90
2022-12-24T00:16:14.896Z,17.80
2022-12-24T00:18:45.753Z,17.60
2022-12-24T00:21:14.593Z,17.00
2022-12-24T00:23:41.058Z,15.70
2022-12-24T00:26:07.810Z,18.00
2022-12-24T00:28:34.558Z,18.10
2022-12-24T00:31:17.016Z,16.70
2022-12-24T00:33:45.250Z,18.70
2022-12-24T00:36:12.019Z,18.10
2022-12-24T00:38:38.751Z,18.30
2022-12-24T00:41:23.494Z,19.40
2022-12-24T00:43:55.830Z,19.90
2022-12-24T00:46:23.510Z,22.20
2022-12-24T00:48:50.090Z,18.30
2022-12-24T00:51:16.904Z,21.10
2022-12-24T00:53:43.539Z,19.10
2022-12-24T00:56:10.104Z,20.50
2022-12-24T00:58:37.186Z,22.20
2022-12-24T01:01:04.157Z,19.60
2022-12-24T01:03:36.628Z,20.50
2022-12-24T01:06:18.709Z,19.90
2022-12-24T01:08:45.537Z,22.00
2022-12-24T01:11:12.278Z,21.80
2022-12-24T01:13:38.787Z,21.50
2022-12-24T01:16:15.168Z,21.00
2022-12-24T01:18:41.771Z,21.40
2022-12-24T01:21:08.404Z,19.30
2022-12-24T01:23:35.046Z,20.30
2022-12-24T01:26:01.931Z,21.50
2022-12-24T01:28:28.477Z,21.10
2022-12-24T01:30:55.224Z,21.00
2022-12-24T01:33:21.922Z,19.40
2022-12-24T01:35:48.556Z,20.80
2022-12-24T01:38:16.267Z,22.70
2022-12-24T01:41:01.422Z,19.00
2022-12-24T01:43:30.234Z,21.40
2022-12-24T01:46:06.071Z,23.10
2022-12-24T01:48:40.838Z,23.40
2022-12-24T01:51:17.148Z,22.50
2022-12-24T01:53:46.800Z,22.10
2022-12-24T01:56:13.529Z,20.70
2022-12-24T01:58:41.030Z,21.20
2022-12-24T02:01:07.464Z,21.00
2022-12-24T02:03:34.203Z,20.90
2022-12-24T02:06:00.976Z,19.00
2022-12-24T02:08:39.234Z,20.70
2022-12-24T02:11:18.116Z,18.90
2022-12-24T02:13:58.167Z,19.00
2022-12-24T02:16:52.740Z,19.40
2022-12-24T02:19:42.115Z,18.50
2022-12-24T02:22:39.632Z,20.00
2022-12-24T02:25:38.056Z,19.00
2022-12-24T02:28:17.123Z,19.30
2022-12-24T02:30:58.536Z,21.20
2022-12-24T02:33:29.769Z,18.40
2022-12-24T02:36:11.739Z,18.90
2022-12-24T02:38:52.181Z,18.80
2022-12-24T02:41:25.378Z,19.20
2022-12-24T02:43:53.055Z,20.00
2022-12-24T02:46:25.909Z,19.50
2022-12-24T02:48:52.656Z,19.30
2022-12-24T02:51:26.579Z,19.10
2022-12-24T02:53:53.232Z,17.40
2022-12-24T02:56:38.370Z,18.10
2022-12-24T02:59:29.029Z,18.30
2022-12-24T03:02:24.968Z,22.10
2022-12-24T03:05:22.147Z,18.60
2022-12-24T03:08:15.663Z,19.70
2022-12-24T03:10:56.250Z,20.10
2022-12-24T03:13:23.274Z,23.00
2022-12-24T03:15:50.354Z,19.60
2022-12-24T03:18:21.249Z,20.10
2022-12-24T03:21:03.422Z,19.80
2022-12-24T03:23:29.872Z,20.00
2022-12-24T03:25:56.365Z,19.70
2022-12-24T03:28:25.074Z,19.40
2022-12-24T03:30:51.652Z,20.30
2022-12-24T03:33:18.378Z,19.60
2022-12-24T03:35:45.083Z,21.00
2022-12-24T03:38:11.634Z,20.30
2022-12-24T03:40:38.727Z,20.70
2022-12-24T03:43:05.302Z,20.90
2022-12-24T03:45:31.950Z,18.90
2022-12-24T03:47:58.550Z,20.60
2022-12-24T03:50:25.129Z,19.00
2022-12-24T03:52:51.632Z,20.70
2022-12-24T03:55:18.175Z,21.20
2022-12-24T03:57:44.828Z,20.60
2022-12-24T04:00:12.446Z,19.50
2022-12-24T04:02:39.671Z,19.10
2022-12-24T04:05:07.743Z,20.00
2022-12-24T04:07:34.262Z,20.30
2022-12-24T04:10:00.911Z,19.40
2022-12-24T04:12:27.403Z,19.60
2022-12-24T04:14:53.861Z,20.70
2022-12-24T04:17:20.349Z,19.60
2022-12-24T04:19:46.875Z,21.00
2022-12-24T04:22:13.476Z,18.20
2022-12-24T04:24:40.061Z,18.70
2022-12-24T04:27:06.545Z,17.80
2022-12-24T04:29:33.089Z,13.40
2022-12-24T04:31:59.788Z,16.70
2022-12-24T04:34:26.902Z,15.80
2022-12-24T04:36:53.423Z,16.20
2022-12-24T04:39:20.032Z,16.40
2022-12-24T04:41:46.651Z,16.20
2022-12-24T04:44:13.178Z,16.40
2022-12-24T04:46:41.638Z,12.90
2022-12-24T04:49:08.266Z,14.80
2022-12-24T04:51:34.817Z,13.00
2022-12-24T04:54:01.454Z,13.10
2022-12-24T04:56:30.235Z,11.80
2022-12-24T04:58:57.738Z,14.50
2022-12-24T05:01:28.176Z,14.70
2022-12-24T05:03:55.125Z,13.30
2022-12-24T05:06:28.583Z,15.60
2022-12-24T05:08:56.244Z,14.10
2022-12-24T05:11:23.023Z,16.20
2022-12-24T05:13:49.738Z,15.70
2022-12-24T05:16:17.528Z,13.40
2022-12-24T05:18:44.365Z,15.00
2022-12-24T05:21:14.131Z,14.20
2022-12-24T05:23:59.085Z,13.10
2022-12-24T05:26:39.241Z,13.00
2022-12-24T05:29:06.484Z,11.10
2022-12-24T05:31:33.468Z,12.00
2022-12-24T05:34:00.738Z,15.60
2022-12-24T05:36:27.244Z,13.20
2022-12-24T05:38:53.971Z,15.60
2022-12-24T05:41:20.934Z,13.30
2022-12-24T05:43:47.454Z,15.30
2022-12-24T05:46:18.063Z,17.40
2022-12-24T05:48:44.971Z,16.70
2022-12-24T05:51:12.763Z,17.60
2022-12-24T05:53:39.434Z,15.80
2022-12-24T05:56:11.908Z,17.00
2022-12-24T05:58:40.477Z,17.30
2022-12-24T06:01:07.861Z,14.30
2022-12-24T06:03:34.509Z,18.70
2022-12-24T06:06:09.496Z,18.60
2022-12-24T06:08:36.233Z,16.60
2022-12-24T06:11:05.530Z,18.70
2022-12-24T06:13:32.369Z,17.20
2022-12-24T06:16:00.563Z,15.40
2022-12-24T06:18:29.332Z,17.20
2022-12-24T06:20:56.885Z,15.00
2022-12-24T06:23:23.587Z,15.60
2022-12-24T06:25:50.715Z,15.20
2022-12-24T06:28:17.534Z,15.40
2022-12-24T06:30:49.014Z,14.30
2022-12-24T06:33:16.114Z,14.70
2022-12-24T06:35:44.490Z,14.30
2022-12-24T06:38:10.911Z,13.30
2022-12-24T06:40:38.736Z,14.10
2022-12-24T06:43:05.594Z,13.10
2022-12-24T06:45:32.182Z,12.80
2022-12-24T06:47:59.229Z,15.70
2022-12-24T06:50:25.718Z,14.70
2022-12-24T06:52:52.624Z,14.70
2022-12-24T06:55:19.281Z,15.30
2022-12-24T06:57:45.669Z,15.70
2022-12-24T07:00:12.899Z,15.40
2022-12-24T07:02:43.042Z,17.30
2022-12-24T07:05:12.979Z,17.00
2022-12-24T07:07:41.685Z,16.30
2022-12-24T07:10:14.207Z,16.10
2022-12-24T07:12:40.881Z,14.80
2022-12-24T07:15:08.524Z,14.70
2022-12-24T07:17:35.208Z,13.70
2022-12-24T07:20:02.117Z,15.50
2022-12-24T07:22:28.503Z,14.90
2022-12-24T07:24:54.934Z,14.50
2022-12-24T07:27:21.600Z,13.40
2022-12-24T07:29:48.240Z,12.50
2022-12-24T07:32:14.782Z,14.30
2022-12-24T07:34:41.428Z,14.20
2022-12-24T07:37:08.025Z,13.80
2022-12-24T07:39:34.765Z,13.50
2022-12-24T07:42:01.277Z,15.30
2022-12-24T07:44:27.943Z,14.30
2022-12-24T07:46:54.545Z,15.70
2022-12-24T07:49:21.366Z,14.30
2022-12-24T07:51:48.010Z,15.80
2022-12-24T07:54:14.421Z,14.30
2022-12-24T07:56:42.107Z,15.50
2022-12-24T07:59:12.305Z,14.60
2022-12-24T08:01:39.263Z,15.80
2022-12-24T08:04:05.998Z,15.50
2022-12-24T08:06:32.450Z,16.70
2022-12-24T08:08:59.124Z,17.40
2022-12-24T08:11:25.610Z,16.80
2022-12-24T08:13:52.100Z,17.00
2022-12-24T08:16:18.872Z,19.30
2022-12-24T08:18:45.509Z,20.90
2022-12-24T08:21:11.975Z,19.50
2022-12-24T08:23:38.820Z,20.30
2022-12-24T08:26:09.226Z,20.10
2022-12-24T08:28:35.984Z,29.10
2022-12-24T08:31:02.599Z,39.60
2022-12-24T08:33:29.231Z,36.30
2022-12-24T08:35:55.927Z,35.90
2022-12-24T08:38:22.795Z,23.70
2022-12-24T08:40:49.626Z,45.40
2022-12-24T08:43:16.808Z,34.60
2022-12-24T08:45:43.380Z,31.30
2022-12-24T08:48:10.103Z,39.90
2022-12-24T08:50:40.451Z,29.60
2022-12-24T08:53:08.070Z,22.50
2022-12-24T08:55:34.838Z,20.40
2022-12-24T08:58:01.518Z,20.40
2022-12-24T09:00:29.068Z,23.10
2022-12-24T09:02:56.518Z,29.80
2022-12-24T09:05:23.173Z,29.70
2022-12-24T09:07:50.999Z,29.20
2022-12-24T09:10:17.638Z,21.10
2022-12-24T09:12:44.284Z,21.30
2022-12-24T09:15:11.020Z,21.50
2022-12-24T09:17:37.508Z,21.10
2022-12-24T09:20:06.147Z,20.40
2022-12-24T09:22:37.634Z,18.40
2022-12-24T09:25:05.577Z,21.50
2022-12-24T09:27:32.019Z,22.20
2022-12-24T09:29:58.394Z,22.00
2022-12-24T09:32:25.120Z,18.30
2022-12-24T09:34:51.734Z,19.50
2022-12-24T09:37:18.448Z,21.20
2022-12-24T09:39:45.110Z,19.00
2022-12-24T09:42:42.186Z,18.90
2022-12-24T09:45:23.993Z,18.90
2022-12-24T09:48:00.746Z,18.50
2022-12-24T09:50:58.169Z,19.40
2022-12-24T09:53:56.213Z,17.00
2022-12-24T09:56:40.320Z,20.40
2022-12-24T09:59:14.619Z,18.30
2022-12-24T10:01:41.230Z,18.00
2022-12-24T10:04:13.789Z,18.70
2022-12-24T10:07:30.349Z,18.70
2022-12-24T10:10:03.645Z,18.40
2022-12-24T10:12:49.498Z,19.70
2022-12-24T10:15:30.522Z,18.00
2022-12-24T10:18:26.429Z,18.20
2022-12-24T10:21:09.889Z,21.10
2022-12-24T10:23:46.335Z,21.20
2022-12-24T10:26:25.184Z,17.90
2022-12-24T10:28:56.716Z,16.50
2022-12-24T10:31:26.980Z,15.80
2022-12-24T10:34:00.682Z,17.00
2022-12-24T10:36:29.094Z,15.60
2022-12-24T10:38:55.838Z,14.80
2022-12-24T10:41:23.021Z,16.10
2022-12-24T10:43:49.573Z,17.70
2022-12-24T10:46:29.338Z,15.10
2022-12-24T10:49:00.147Z,14.70
2022-12-24T10:52:00.726Z,15.90
2022-12-24T10:54:28.270Z,13.80
2022-12-24T10:57:00.177Z,13.80
2022-12-24T10:59:41.504Z,14.50
2022-12-24T11:02:37.508Z,16.40
2022-12-24T11:05:07.523Z,18.00
2022-12-24T11:07:34.111Z,15.70
2022-12-24T11:10:02.560Z,18.40
2022-12-24T11:12:32.406Z,16.80
2022-12-24T11:15:22.281Z,15.10
2022-12-24T11:17:59.747Z,15.10
2022-12-24T11:20:28.009Z,14.30
2022-12-24T11:22:54.599Z,15.00
2022-12-24T11:25:21.665Z,13.20
2022-12-24T11:27:50.822Z,11.30
2022-12-24T11:30:31.128Z,15.00
2022-12-24T11:33:00.761Z,15.00
2022-12-24T11:35:29.317Z,14.10
2022-12-24T11:38:02.481Z,14.50
2022-12-24T11:41:12.237Z,13.90
2022-12-24T11:43:44.777Z,15.00
2022-12-24T11:46:17.007Z,14.50
2022-12-24T11:48:43.615Z,14.00
2022-12-24T11:51:25.085Z,12.80
2022-12-24T11:54:16.047Z,11.00
2022-12-24T11:56:45.591Z,12.90
2022-12-24T11:59:16.134Z,11.00
2022-12-24T12:01:57.848Z,11.10
2022-12-24T12:04:28.320Z,10.60
2022-12-24T12:07:07.138Z,10.40
2022-12-24T12:10:05.598Z,13.30
2022-12-24T12:12:41.449Z,12.20
2022-12-24T12:15:22.678Z,12.00
2022-12-24T12:18:14.421Z,13.90
2022-12-24T12:20:46.886Z,16.10
2022-12-24T12:23:35.631Z,14.80
2022-12-24T12:26:25.061Z,17.00
2022-12-24T12:29:00.469Z,13.90
2022-12-24T12:31:41.353Z,15.90
2022-12-24T12:34:32.064Z,24.70
2022-12-24T12:37:15.213Z,17.70
2022-12-24T12:39:41.893Z,16.50
2022-12-24T12:42:26.445Z,13.80
2022-12-24T12:45:14.198Z,11.70
2022-12-24T12:48:13.275Z,12.10
2022-12-24T12:51:36.815Z,11.60
2022-12-24T12:54:20.576Z,9.90
2022-12-24T12:56:49.737Z,9.20
2022-12-24T12:59:28.973Z,17.90
2022-12-24T13:02:26.027Z,24.40
2022-12-24T13:05:20.420Z,32.10
2022-12-24T13:08:23.752Z,37.90
2022-12-24T13:11:11.994Z,31.30
2022-12-24T13:13:47.054Z,45.50
2022-12-24T13:16:46.476Z,34.90
2022-12-24T13:19:34.319Z,26.50
2022-12-24T13:22:04.403Z,31.60
2022-12-24T13:24:31.230Z,40.20
2022-12-24T13:27:26.164Z,37.60
2022-12-24T13:29:59.872Z,24.00
2022-12-24T13:32:51.402Z,26.60
2022-12-24T13:35:17.978Z,31.20
2022-12-24T13:37:44.541Z,25.80
2022-12-24T13:40:11.076Z,25.50
2022-12-24T13:43:04.044Z,26.50
2022-12-24T13:45:30.648Z,22.50
2022-12-24T13:47:57.950Z,21.30
2022-12-24T13:50:37.859Z,21.40
2022-12-24T13:53:05.176Z,14.40
2022-12-24T13:55:31.852Z,19.10
2022-12-24T13:58:00.545Z,19.70
2022-12-24T14:00:31.773Z,16.50
2022-12-24T14:03:13.978Z,13.90
2022-12-24T14:05:44.208Z,12.90
2022-12-24T14:08:34.374Z,12.20
2022-12-24T14:11:18.938Z,12.00
2022-12-24T14:13:48.422Z,11.70
2022-12-24T14:16:22.819Z,16.10
2022-12-24T14:19:07.991Z,17.70
2022-12-24T14:21:36.771Z,17.90
2022-12-24T14:24:06.585Z,16.60
2022-12-24T14:26:44.919Z,22.80
2022-12-24T14:29:31.585Z,19.60
2022-12-24T14:31:59.385Z,15.20
2022-12-24T14:34:26.808Z,12.70
2022-12-24T14:36:54.414Z,12.40
2022-12-24T14:39:38.532Z,12.70
2022-12-24T14:42:46.062Z,13.10
2022-12-24T14:45:41.207Z,15.60
2022-12-24T14:48:32.715Z,14.00
2022-12-24T14:51:40.049Z,17.40
2022-12-24T14:54:13.494Z,12.40
2022-12-24T14:56:40.043Z,12.80
2022-12-24T14:59:17.703Z,13.10
2022-12-24T15:01:44.427Z,11.10
2022-12-24T15:04:11.056Z,12.30
2022-12-24T15:06:58.822Z,11.30
2022-12-24T15:09:31.263Z,12.10
2022-12-24T15:12:00.031Z,12.10
2022-12-24T15:14:27.631Z,11.00
2022-12-24T15:17:01.398Z,11.40
2022-12-24T15:19:36.477Z,12.00
2022-12-24T15:22:03.956Z,11.90
2022-12-24T15:24:36.694Z,9.10
2022-12-24T15:27:19.099Z,10.30
2022-12-24T15:29:48.402Z,12.00
2022-12-24T15:32:16.657Z,11.60
2022-12-24T15:34:44.567Z,10.80
2022-12-24T15:37:24.618Z,12.00
2022-12-24T15:40:16.144Z,9.90
2022-12-24T15:42:42.889Z,11.30
2022-12-24T15:45:29.913Z,11.50
2022-12-24T15:48:10.429Z,11.90
2022-12-24T15:50:43.044Z,13.10
2022-12-24T15:53:35.321Z,12.50
2022-12-24T15:56:13.130Z,12.50
2022-12-24T15:58:44.114Z,12.80
2022-12-24T16:01:16.788Z,11.80
2022-12-24T16:03:49.537Z,11.80
2022-12-24T16:06:16.392Z,12.40
2022-12-24T16:08:43.152Z,13.30
2022-12-24T16:11:20.732Z,12.60
2022-12-24T16:13:50.464Z,11.90
2022-12-24T16:16:22.079Z,12.20
2022-12-24T16:18:54.751Z,13.00
2022-12-24T16:21:29.497Z,13.60
2022-12-24T16:23:57.940Z,13.40
2022-12-24T16:26:24.453Z,11.50
2022-12-24T16:28:51.070Z,12.20
2022-12-24T16:31:19.394Z,13.40
2022-12-24T16:33:46.418Z,13.50
2022-12-24T16:36:13.381Z,13.10
2022-12-24T16:38:58.456Z,12.50
2022-12-24T16:41:24.927Z,12.10
2022-12-24T16:43:51.340Z,12.50
2022-12-24T16:46:18.067Z,12.20
2022-12-24T16:48:46.538Z,13.10
2022-12-24T16:51:13.237Z,14.10
2022-12-24T16:53:40.585Z,15.20
2022-12-24T16:56:07.326Z,14.30
2022-12-24T16:58:35.116Z,13.30
2022-12-24T17:01:08.620Z,15.50
2022-12-24T17:03:35.677Z,14.70
2022-12-24T17:06:06.121Z,15.80
2022-12-24T17:08:32.772Z,14.90
2022-12-24T17:10:59.348Z,15.00
2022-12-24T17:13:25.880Z,15.20
2022-12-24T17:15:52.492Z,15.90
2022-12-24T17:18:19.197Z,20.70
2022-12-24T17:20:56.070Z,21.30
2022-12-24T17:23:22.532Z,17.00
2022-12-24T17:25:49.119Z,14.70
2022-12-24T17:28:15.681Z,13.90
2022-12-24T17:30:42.383Z,12.80
2022-12-24T17:33:14.310Z,12.60
2022-12-24T17:35:42.102Z,11.40
2022-12-24T17:38:09.085Z,10.80
2022-12-24T17:40:35.649Z,12.60
2022-12-24T17:43:02.507Z,10.90
2022-12-24T17:45:29.093Z,11.30
2022-12-24T17:47:55.618Z,11.20
2022-12-24T17:50:22.104Z,10.50
2022-12-24T17:52:48.884Z,9.70
2022-12-24T17:55:15.592Z,10.90
2022-12-24T17:57:42.365Z,10.60
2022-12-24T18:00:09.951Z,10.70
2022-12-24T18:02:37.762Z,10.90
2022-12-24T18:05:05.085Z,10.30
2022-12-24T18:07:31.711Z,11.30
2022-12-24T18:09:58.282Z,10.40
2022-12-24T18:12:24.756Z,11.10
2022-12-24T18:14:51.426Z,12.30
2022-12-24T18:17:18.002Z,11.00
2022-12-24T18:19:44.531Z,12.80
2022-12-24T18:22:11.100Z,14.80
2022-12-24T18:24:37.661Z,11.50
2022-12-24T18:27:04.256Z,11.00
2022-12-24T18:29:30.781Z,12.80
2022-12-24T18:31:57.264Z,11.40
2022-12-24T18:34:23.992Z,11.70
2022-12-24T18:36:55.016Z,11.80
2022-12-24T18:39:22.404Z,11.50
2022-12-24T18:41:48.947Z,10.70
2022-12-24T18:44:19.489Z,10.20
2022-12-24T18:46:50.976Z,9.10
2022-12-24T18:49:17.533Z,9.90
2022-12-24T18:51:44.260Z,10.60
2022-12-24T18:54:10.939Z,10.50
2022-12-24T18:56:37.481Z,10.00
2022-12-24T18:59:04.069Z,11.10
2022-12-24T19:01:32.753Z,12.50
2022-12-24T19:03:59.872Z,12.20
2022-12-24T19:06:26.385Z,11.60
2022-12-24T19:08:58.488Z,12.80
2022-12-24T19:11:27.967Z,12.80
2022-12-24T19:13:54.804Z,13.30
2022-12-24T19:16:21.760Z,12.70
2022-12-24T19:18:49.219Z,13.90
2022-12-24T19:21:16.654Z,13.80
2022-12-24T19:23:43.726Z,11.20
2022-12-24T19:26:10.722Z,11.30
2022-12-24T19:28:37.630Z,8.60
2022-12-24T19:31:07.383Z,10.00
2022-12-24T19:33:45.110Z,11.10
2022-12-24T19:36:15.355Z,9.90
2022-12-24T19:38:42.191Z,11.90
2022-12-24T19:41:14.139Z,11.30
2022-12-24T19:43:46.145Z,10.60
2022-12-24T19:46:15.281Z,10.70
2022-12-24T19:48:42.431Z,11.60
2022-12-24T19:51:11.115Z,10.60
2022-12-24T19:53:38.035Z,10.30
2022-12-24T19:56:05.170Z,10.70
2022-12-24T19:58:34.527Z,10.40
2022-12-24T20:01:15.696Z,11.30
2022-12-24T20:03:43.896Z,11.70
2022-12-24T20:06:11.090Z,13.00
2022-12-24T20:08:37.994Z,10.50
2022-12-24T20:11:06.222Z,12.40
2022-12-24T20:13:33.850Z,12.10
2022-12-24T20:16:20.421Z,10.30
2022-12-24T20:18:54.540Z,9.40
2022-12-24T20:21:21.355Z,11.30
2022-12-24T20:23:48.149Z,12.30
2022-12-24T20:26:15.899Z,13.50
2022-12-24T20:28:42.423Z,11.10
2022-12-24T20:31:19.621Z,12.00
2022-12-24T20:33:46.566Z,12.00
2022-12-24T20:36:18.039Z,9.20
2022-12-24T20:38:45.148Z,12.50
2022-12-24T20:41:13.353Z,13.00
2022-12-24T20:43:47.348Z,12.00
2022-12-24T20:46:16.757Z,12.00
2022-12-24T20:48:43.359Z,12.80
2022-12-24T20:51:22.797Z,11.90
2022-12-24T20:53:54.502Z,12.60
2022-12-24T20:56:21.325Z,13.20
2022-12-24T20:58:48.041Z,10.50
2022-12-24T21:01:26.446Z,12.10
2022-12-24T21:03:54.583Z,10.90
2022-12-24T21:06:22.605Z,12.10
2022-12-24T21:08:49.493Z,11.00
2022-12-24T21:11:34.616Z,12.80
2022-12-24T21:14:01.469Z,12.30
2022-12-24T21:16:30.593Z,9.10
2022-12-24T21:18:57.103Z,12.50
2022-12-24T21:21:23.555Z,12.70
2022-12-24T21:23:50.292Z,11.70
2022-12-24T21:26:16.926Z,13.30
2022-12-24T21:28:44.684Z,11.40
2022-12-24T21:31:12.412Z,11.30
2022-12-24T21:33:39.124Z,11.40
2022-12-24T21:36:06.233Z,12.00
2022-12-24T21:38:33.409Z,11.60
2022-12-24T21:41:01.033Z,13.00
2022-12-24T21:43:29.709Z,10.50
2022-12-24T21:45:56.823Z,11.60
2022-12-24T21:48:43.674Z,10.90
2022-12-24T21:51:10.321Z,13.90
2022-12-24T21:53:55.436Z,13.80
2022-12-24T21:56:22.973Z,13.30
2022-12-24T21:58:50.242Z,13.50
2022-12-24T22:01:17.091Z,12.50
2022-12-24T22:03:44.083Z,14.20
2022-12-24T22:06:30.579Z,11.00
2022-12-24T22:09:15.603Z,14.00
2022-12-24T22:11:53.934Z,15.00
2022-12-24T22:14:21.095Z,13.70
2022-12-24T22:16:47.746Z,13.40
2022-12-24T22:19:14.444Z,15.60
2022-12-24T22:21:40.917Z,13.90
2022-12-24T22:24:08.033Z,13.80
2022-12-24T22:26:34.588Z,15.90
2022-12-24T22:29:04.572Z,14.30
2022-12-24T22:31:31.919Z,14.80
2022-12-24T22:33:58.890Z,13.70
2022-12-24T22:36:25.635Z,15.60
2022-12-24T22:38:52.085Z,13.70
2022-12-24T22:41:18.550Z,10.90
2022-12-24T22:43:45.131Z,10.00
2022-12-24T22:46:12.698Z,10.80
2022-12-24T22:48:39.811Z,11.90
2022-12-24T22:51:07.582Z,10.00
2022-12-24T22:53:34.682Z,12.40
2022-12-24T22:56:01.308Z,11.10
2022-12-24T22:58:27.955Z,10.60
2022-12-24T23:00:55.073Z,10.20
2022-12-24T23:03:21.833Z,10.80
2022-12-24T23:05:58.960Z,9.60
2022-12-24T23:08:25.651Z,10.40
2022-12-24T23:10:53.621Z,9.10
2022-12-24T23:13:39.042Z,9.80
2022-12-24T23:16:06.395Z,8.00
2022-12-24T23:18:33.369Z,8.00
2022-12-24T23:21:04.663Z,8.30
2022-12-24T23:23:36.665Z,8.60
2022-12-24T23:26:10.015Z,8.90
2022-12-24T23:28:36.667Z,9.90
2022-12-24T23:31:03.522Z,10.70
2022-12-24T23:33:30.407Z,8.40
2022-12-24T23:35:57.092Z,8.80
2022-12-24T23:38:23.623Z,9.50
2022-12-24T23:40:50.107Z,10.70
2022-12-24T23:43:16.662Z,9.30
2022-12-24T23:45:49.688Z,10.10
2022-12-24T23:48:16.674Z,9.10
2022-12-24T23:50:43.345Z,9.70
2022-12-24T23:53:10.196Z,11.40
2022-12-24T23:55:37.503Z,10.40
2022-12-24T23:58:05.276Z,9.40
